Dades meteomassalio
Diari Summary for Abril 4, 2017 Units:  Metric    English   Both
« Previous Day
Next Day »
Diari Semanal Mensual Anual Personalitzat
  Maxima: Minima: Mijana:
Temperatura: 20.5 °C 4.7 °C 12.6 °C
Rosada: 9.3 °C 2.3 °C 5.7 °C
Humitat: 86 % 33 % 65 %
Velocitat del vent: 33.3 km/h 0.0 km/h 11.9 km/h
Racha vent: 33.3 km/h - -
Vent:- - WNW
Pressio: 1024.9 hPa 1020.5 hPa -
Pluja: 0.0 mm    
Historical Graphs
 
 
Tabular Data for Abril 4, 2017
Time Temperature Dew Point Pressure Wind Wind Speed Wind Gust Humidity Rainfall Rate (Hourly) solar Conditions
00:01 7.8 °C 3.6 °C 1023.6 hPa Calm     75 % 0.0 mm 0.0 W/m2 CLR
00:06 7.7 °C 3.6 °C 1023.9 hPa Calm     75 % 0.0 mm 0.0 W/m2 CLR
00:11 7.7 °C 3.5 °C 1023.6 hPa Calm     75 % 0.0 mm 0.0 W/m2 CLR
00:16 7.6 °C 3.4 °C 1023.6 hPa Calm     75 % 0.0 mm 0.0 W/m2 CLR
00:21 7.5 °C 3.6 °C 1023.9 hPa Calm     76 % 0.0 mm 0.0 W/m2 CLR
00:26 7.4 °C 3.4 °C 1023.9 hPa Calm     76 % 0.0 mm 0.0 W/m2 CLR
00:31 7.3 °C 3.4 °C 1023.9 hPa Calm     76 % 0.0 mm 0.0 W/m2 CLR
00:36 7.2 °C 3.4 °C 1023.9 hPa Calm     77 % 0.0 mm 0.0 W/m2 CLR
00:41 7.1 °C 3.5 °C 1023.9 hPa Calm     78 % 0.0 mm 0.0 W/m2 CLR
00:46 6.9 °C 3.3 °C 1023.9 hPa Calm     78 % 0.0 mm 0.0 W/m2 CLR
00:51 6.8 °C 3.3 °C 1023.9 hPa Calm     78 % 0.0 mm 0.0 W/m2 CLR
00:56 6.8 °C 3.2 °C 1023.9 hPa Calm     78 % 0.0 mm 0.0 W/m2 CLR
01:01 6.8 °C 3.2 °C 1023.9 hPa Calm     78 % 0.0 mm 0.0 W/m2 CLR
01:06 6.8 °C 3.4 °C 1023.9 hPa Calm     79 % 0.0 mm 0.0 W/m2 CLR
01:11 6.6 °C 3.2 °C 1023.9 hPa Calm     79 % 0.0 mm 0.0 W/m2 CLR
01:16 6.4 °C 3.2 °C 1023.9 hPa Calm     80 % 0.0 mm 0.0 W/m2 CLR
01:21 6.3 °C 3.1 °C 1023.9 hPa Calm     80 % 0.0 mm 0.0 W/m2 CLR
01:26 6.3 °C 3.1 °C 1023.9 hPa Calm     80 % 0.0 mm 0.0 W/m2 CLR
01:31 6.3 °C 3.1 °C 1023.9 hPa Calm     80 % 0.0 mm 0.0 W/m2 CLR
01:36 6.3 °C 3.1 °C 1023.6 hPa Calm     80 % 0.0 mm 0.0 W/m2 CLR
01:41 6.2 °C 2.9 °C 1023.9 hPa Calm     80 % 0.0 mm 0.0 W/m2 CLR
01:46 6.1 °C 2.9 °C 1023.9 hPa Calm     80 % 0.0 mm 0.0 W/m2 CLR
01:51 6.1 °C 3.1 °C 1023.6 hPa Calm     81 % 0.0 mm 0.0 W/m2 CLR
01:56 5.9 °C 2.9 °C 1023.6 hPa Calm     81 % 0.0 mm 0.0 W/m2 CLR
02:01 5.9 °C 2.9 °C 1023.6 hPa Calm     81 % 0.0 mm 0.0 W/m2 CLR
02:06 5.8 °C 2.8 °C 1023.6 hPa Calm     81 % 0.0 mm 0.0 W/m2 CLR
02:11 5.9 °C 2.9 °C 1023.6 hPa Calm     81 % 0.0 mm 0.0 W/m2 CLR
02:16 5.9 °C 2.9 °C 1023.6 hPa Calm     81 % 0.0 mm 0.0 W/m2 CLR
02:21 5.9 °C 2.9 °C 1023.6 hPa Calm     81 % 0.0 mm 0.0 W/m2 CLR
02:26 5.8 °C 2.8 °C 1023.6 hPa Calm     81 % 0.0 mm 0.0 W/m2 CLR
02:31 5.9 °C 2.9 °C 1023.6 hPa Calm     81 % 0.0 mm 0.0 W/m2 CLR
02:36 5.9 °C 2.9 °C 1023.6 hPa Calm     81 % 0.0 mm 0.0 W/m2 CLR
02:41 5.9 °C 2.9 °C 1023.6 hPa Calm     81 % 0.0 mm 0.0 W/m2 CLR
02:46 5.8 °C 2.8 °C 1023.6 hPa Calm     81 % 0.0 mm 0.0 W/m2 CLR
02:51 5.8 °C 2.8 °C 1023.6 hPa Calm     81 % 0.0 mm 0.0 W/m2 CLR
02:56 5.9 °C 2.9 °C 1023.6 hPa Calm     81 % 0.0 mm 0.0 W/m2 CLR
03:01 5.9 °C 2.9 °C 1023.2 hPa Calm     81 % 0.0 mm 0.0 W/m2 CLR
03:06 5.9 °C 2.9 °C 1023.2 hPa Calm     81 % 0.0 mm 0.0 W/m2 CLR
03:11 6.1 °C 3.1 °C 1023.2 hPa Calm     81 % 0.0 mm 0.0 W/m2 CLR
03:16 6.1 °C 3.1 °C 1023.2 hPa Calm     81 % 0.0 mm 0.0 W/m2 CLR
03:21 6.0 °C 3.0 °C 1023.2 hPa Calm     81 % 0.0 mm 0.0 W/m2 CLR
03:26 6.0 °C 3.0 °C 1023.2 hPa Calm     81 % 0.0 mm 0.0 W/m2 CLR
03:31 6.2 °C 3.2 °C 1023.2 hPa Calm     81 % 0.0 mm 0.0 W/m2 CLR
03:36 6.3 °C 3.1 °C 1023.2 hPa Calm     80 % 0.0 mm 0.0 W/m2 CLR
03:41 6.2 °C 2.9 °C 1023.2 hPa Calm     80 % 0.0 mm 0.0 W/m2 CLR
03:46 6.1 °C 2.9 °C 1023.2 hPa Calm     80 % 0.0 mm 0.0 W/m2 CLR
03:51 5.9 °C 2.8 °C 1023.2 hPa Calm     80 % 0.0 mm 0.0 W/m2 CLR
03:56 5.7 °C 2.7 °C 1023.2 hPa Calm     81 % 0.0 mm 0.0 W/m2 CLR
04:02 5.6 °C 2.8 °C 1023.2 hPa Calm     82 % 0.0 mm 0.0 W/m2 CLR
04:06 5.5 °C 2.7 °C 1023.6 hPa Calm     82 % 0.0 mm 0.0 W/m2 CLR
04:12 5.4 °C 2.7 °C 1023.6 hPa Calm     83 % 0.0 mm 0.0 W/m2 CLR
04:17 5.3 °C 2.7 °C 1023.6 hPa Calm     83 % 0.0 mm 0.0 W/m2 CLR
04:22 5.2 °C 2.6 °C 1023.6 hPa Calm     83 % 0.0 mm 0.0 W/m2 CLR
04:27 5.0 °C 2.3 °C 1023.6 hPa Calm     83 % 0.0 mm 0.0 W/m2 CLR
04:32 5.0 °C 2.7 °C 1023.6 hPa Calm     85 % 0.0 mm 0.0 W/m2 CLR
04:37 5.1 °C 2.6 °C 1023.6 hPa Calm     84 % 0.0 mm 0.0 W/m2 CLR
04:42 5.1 °C 2.7 °C 1023.6 hPa Calm     85 % 0.0 mm 0.0 W/m2 CLR
04:47 5.0 °C 2.5 °C 1023.6 hPa Calm     84 % 0.0 mm 0.0 W/m2 CLR
04:52 4.9 °C 2.4 °C 1023.6 hPa Calm     84 % 0.0 mm 0.0 W/m2 CLR
04:57 4.7 °C 2.4 °C 1023.6 hPa Calm     85 % 0.0 mm 0.0 W/m2 CLR
05:02 4.7 °C 2.5 °C 1023.6 hPa Calm     86 % 0.0 mm 0.0 W/m2 CLR
05:07 4.8 °C 2.7 °C 1023.6 hPa Calm     86 % 0.0 mm 0.0 W/m2 CLR
05:12 5.1 °C 2.9 °C 1023.9 hPa Calm     86 % 0.0 mm 0.0 W/m2 CLR
05:17 5.5 °C 3.3 °C 1023.6 hPa Calm     86 % 0.0 mm 0.0 W/m2 CLR
05:22 5.7 °C 3.4 °C 1023.6 hPa Calm     85 % 0.0 mm 0.0 W/m2 CLR
05:27 6.1 °C 3.8 °C 1023.6 hPa Calm     85 % 0.0 mm 0.0 W/m2 CLR
05:32 7.1 °C 4.7 °C 1023.6 hPa West 1.9 km/h 1.9 km/h 85 % 0.0 mm 0.0 W/m2 CLR
05:37 8.1 °C 5.2 °C 1023.9 hPa West 3.7 km/h 3.7 km/h 82 % 0.0 mm 0.0 W/m2 CLR
05:42 8.3 °C 4.6 °C 1023.9 hPa WSW 5.6 km/h 5.6 km/h 77 % 0.0 mm 0.0 W/m2 CLR
05:47 7.7 °C 3.8 °C 1023.6 hPa WSW 5.6 km/h 5.6 km/h 76 % 0.0 mm 0.0 W/m2 CLR
05:52 7.6 °C 4.2 °C 1023.6 hPa WSW 5.6 km/h 5.6 km/h 79 % 0.0 mm 0.0 W/m2 CLR
05:57 7.6 °C 4.2 °C 1023.9 hPa WSW 3.7 km/h 3.7 km/h 79 % 0.0 mm 0.0 W/m2 CLR
06:02 7.6 °C 4.2 °C 1023.9 hPa Calm     79 % 0.0 mm 0.0 W/m2 CLR
06:07 7.6 °C 4.2 °C 1023.9 hPa Calm     79 % 0.0 mm 0.0 W/m2 CLR
06:12 7.3 °C 3.7 °C 1023.9 hPa Calm     78 % 0.0 mm 0.0 W/m2 CLR
06:17 6.8 °C 3.4 °C 1023.9 hPa Calm     79 % 0.0 mm 0.0 W/m2 CLR
06:22 6.6 °C 3.6 °C 1023.9 hPa Calm     81 % 0.0 mm 0.0 W/m2 CLR
06:27 6.5 °C 3.5 °C 1024.3 hPa Calm     81 % 0.0 mm 0.0 W/m2 CLR
06:32 6.4 °C 3.6 °C 1024.3 hPa Calm     82 % 0.0 mm 0.0 W/m2 CLR
06:37 6.4 °C 3.6 °C 1024.3 hPa Calm     82 % 0.0 mm 0.0 W/m2 CLR
06:42 6.4 °C 3.7 °C 1024.3 hPa SW 3.2 km/h 3.2 km/h 83 % 0.0 mm 0.0 W/m2 CLR
06:47 6.6 °C 4.1 °C 1024.3 hPa Calm     84 % 0.0 mm 0.0 W/m2 CLR
06:52 6.7 °C 4.1 °C 1024.3 hPa Calm     83 % 0.0 mm 0.0 W/m2 CLR
06:57 6.7 °C 3.9 °C 1024.3 hPa Calm     82 % 0.0 mm 0.0 W/m2 CLR
07:02 6.7 °C 3.6 °C 1024.3 hPa Calm     81 % 0.0 mm 0.0 W/m2 CLR
07:07 6.5 °C 3.7 °C 1024.3 hPa Calm     82 % 0.0 mm 0.0 W/m2 CLR
07:12 6.4 °C 3.6 °C 1024.6 hPa Calm     82 % 0.0 mm 0.0 W/m2 CLR
07:17 6.3 °C 3.7 °C 1024.6 hPa Calm     83 % 0.0 mm 0.0 W/m2 CLR
07:22 6.3 °C 3.6 °C 1024.6 hPa Calm     83 % 0.0 mm 0.0 W/m2 CLR
07:27 6.1 °C 3.4 °C 1024.6 hPa Calm     83 % 0.0 mm 0.0 W/m2 OVC
07:28 6.1 °C 3.4 °C 1024.6 hPa Calm     83 % 0.0 mm 0.0 W/m2 OVC
07:33 5.9 °C 3.2 °C 1024.6 hPa Calm     83 % 0.0 mm 0.0 W/m2 OVC
07:38 5.8 °C 3.3 °C 1024.6 hPa Calm     84 % 0.0 mm 5.0 W/m2 OVC
07:43 5.6 °C 3.3 °C 1024.6 hPa Calm     85 % 0.0 mm 9.0 W/m2 BKN
07:48 5.6 °C 3.3 °C 1024.6 hPa Calm     85 % 0.0 mm 12.0 W/m2 BKN
07:53 5.6 °C 3.4 °C 1024.6 hPa Calm     86 % 0.0 mm 16.0 W/m2 BKN
07:58 5.7 °C 3.5 °C 1024.9 hPa Calm     86 % 0.0 mm 21.0 W/m2 BKN
08:03 5.7 °C 3.6 °C 1024.9 hPa Calm     86 % 0.0 mm 26.0 W/m2 BKN
08:08 5.7 °C 3.6 °C 1024.9 hPa Calm     86 % 0.0 mm 33.0 W/m2 BKN
08:13 5.8 °C 3.4 °C 1024.9 hPa Calm     85 % 0.0 mm 44.0 W/m2 BKN
08:18 5.9 °C 3.7 °C 1024.9 hPa Calm     86 % 0.0 mm 54.0 W/m2 SCT
08:23 6.2 °C 4.0 °C 1024.9 hPa Calm     86 % 0.0 mm 51.0 W/m2 SCT
08:28 6.4 °C 4.3 °C 1024.9 hPa Calm     86 % 0.0 mm 70.0 W/m2 FEW
08:33 6.7 °C 4.4 °C 1024.9 hPa Calm     85 % 0.0 mm 79.0 W/m2 FEW
08:38 7.0 °C 4.7 °C 1024.9 hPa Calm     85 % 0.0 mm 58.0 W/m2 FEW
08:43 7.4 °C 4.8 °C 1024.9 hPa Calm     84 % 0.0 mm 58.0 W/m2 FEW
08:48 7.7 °C 4.9 °C 1024.9 hPa Calm     83 % 0.0 mm 42.0 W/m2 SCT
08:53 8.0 °C 5.3 °C 1024.9 hPa Calm     83 % 0.0 mm 54.0 W/m2 SCT
08:58 8.4 °C 5.6 °C 1024.6 hPa Calm     82 % 0.0 mm 130.0 W/m2 FEW
09:03 9.0 °C 5.7 °C 1024.6 hPa Calm     80 % 0.0 mm 134.0 W/m2 CLR
09:08 9.3 °C 5.9 °C 1024.6 hPa Calm     79 % 0.0 mm 188.0 W/m2 CLR
09:13 9.8 °C 6.2 °C 1024.6 hPa Calm     78 % 0.0 mm 204.0 W/m2 CLR
09:18 10.3 °C 6.4 °C 1024.6 hPa SW 6.4 km/h 6.4 km/h 77 % 0.0 mm 253.0 W/m2 CLR
09:23 10.9 °C 6.6 °C 1024.6 hPa SW 7.4 km/h 7.4 km/h 75 % 0.0 mm 267.0 W/m2 CLR
09:28 11.4 °C 6.8 °C 1024.6 hPa WNW 14.8 km/h 14.8 km/h 73 % 0.0 mm 288.0 W/m2 CLR
09:33 12.1 °C 7.0 °C 1024.6 hPa WNW 20.4 km/h 20.4 km/h 71 % 0.0 mm 306.0 W/m2 CLR
09:38 12.6 °C 7.0 °C 1024.6 hPa West 13.0 km/h 13.0 km/h 69 % 0.0 mm 323.0 W/m2 CLR
09:43 12.8 °C 7.0 °C 1024.6 hPa West 24.1 km/h 24.1 km/h 68 % 0.0 mm 360.0 W/m2 CLR
09:48 12.8 °C 7.0 °C 1024.6 hPa West 18.5 km/h 18.5 km/h 68 % 0.0 mm 336.0 W/m2 CLR
09:53 12.9 °C 6.9 °C 1024.6 hPa West 25.9 km/h 25.9 km/h 67 % 0.0 mm 378.0 W/m2 CLR
09:58 13.0 °C 7.2 °C 1024.6 hPa West 24.1 km/h 24.1 km/h 68 % 0.0 mm 397.0 W/m2 CLR
10:03 13.1 °C 7.3 °C 1024.6 hPa WNW 14.5 km/h 14.5 km/h 68 % 0.0 mm 418.0 W/m2 CLR
10:08 13.3 °C 7.3 °C 1024.6 hPa West 27.8 km/h 27.8 km/h 67 % 0.0 mm 424.0 W/m2 CLR
10:13 13.4 °C 7.6 °C 1024.6 hPa WNW 24.1 km/h 24.1 km/h 68 % 0.0 mm 438.0 W/m2 CLR
10:18 13.5 °C 7.5 °C 1024.3 hPa WNW 27.8 km/h 27.8 km/h 67 % 0.0 mm 292.0 W/m2 CLR
10:23 13.6 °C 8.0 °C 1024.6 hPa WNW 25.9 km/h 25.9 km/h 69 % 0.0 mm 599.0 W/m2 CLR
10:28 13.7 °C 7.9 °C 1024.3 hPa WNW 18.5 km/h 18.5 km/h 68 % 0.0 mm 243.0 W/m2 CLR
10:33 13.6 °C 7.6 °C 1024.6 hPa West 25.9 km/h 25.9 km/h 67 % 0.0 mm 204.0 W/m2 CLR
10:38 13.6 °C 7.8 °C 1024.6 hPa West 18.5 km/h 18.5 km/h 68 % 0.0 mm 225.0 W/m2 CLR
10:43 13.9 °C 8.1 °C 1024.6 hPa WNW 22.5 km/h 22.5 km/h 68 % 0.0 mm 200.0 W/m2 CLR
10:48 13.9 °C 7.9 °C 1024.6 hPa WNW 20.4 km/h 20.4 km/h 67 % 0.0 mm 200.0 W/m2 CLR
10:53 13.7 °C 7.9 °C 1024.9 hPa NW 25.9 km/h 25.9 km/h 68 % 0.0 mm 195.0 W/m2 CLR
10:58 13.4 °C 7.7 °C 1024.6 hPa NW 24.1 km/h 24.1 km/h 68 % 0.0 mm 156.0 W/m2 CLR
11:03 13.3 °C 7.8 °C 1024.6 hPa West 24.1 km/h 24.1 km/h 69 % 0.0 mm 445.0 W/m2 CLR
11:08 13.7 °C 8.1 °C 1024.6 hPa West 27.8 km/h 27.8 km/h 69 % 0.0 mm 601.0 W/m2 CLR
11:13 14.0 °C 8.2 °C 1024.6 hPa West 22.2 km/h 22.2 km/h 68 % 0.0 mm 686.0 W/m2 CLR
11:18 14.3 °C 8.5 °C 1024.6 hPa WNW 20.4 km/h 20.4 km/h 68 % 0.0 mm 689.0 W/m2 CLR
11:23 14.4 °C 8.4 °C 1024.6 hPa NW 20.4 km/h 20.4 km/h 67 % 0.0 mm 643.0 W/m2 CLR
11:28 14.4 °C 8.1 °C 1024.6 hPa NW 20.4 km/h 20.4 km/h 66 % 0.0 mm 244.0 W/m2 CLR
11:33 14.3 °C 8.0 °C 1024.6 hPa West 25.9 km/h 25.9 km/h 66 % 0.0 mm 241.0 W/m2 CLR
11:38 14.4 °C 8.3 °C 1024.6 hPa WSW 27.8 km/h 27.8 km/h 67 % 0.0 mm 724.0 W/m2 CLR
11:43 14.8 °C 8.3 °C 1024.6 hPa WNW 31.5 km/h 31.5 km/h 65 % 0.0 mm 199.0 W/m2 CLR
11:48 14.5 °C 8.4 °C 1024.6 hPa WNW 22.2 km/h 22.2 km/h 67 % 0.0 mm 717.0 W/m2 CLR
11:53 14.7 °C 8.4 °C 1024.6 hPa WNW 24.1 km/h 24.1 km/h 66 % 0.0 mm 221.0 W/m2 CLR
11:58 14.8 °C 8.6 °C 1024.3 hPa NW 16.7 km/h 16.7 km/h 66 % 0.0 mm 527.0 W/m2 CLR
12:04 15.3 °C 9.2 °C 1024.6 hPa West 18.5 km/h 18.5 km/h 67 % 0.0 mm 842.0 W/m2 CLR
12:09 15.4 °C 8.4 °C 1024.3 hPa WNW 24.1 km/h 24.1 km/h 63 % 0.0 mm 1018.0 W/m2 CLR
12:14 15.1 °C 8.6 °C 1024.3 hPa WNW 16.1 km/h 16.1 km/h 65 % 0.0 mm 269.0 W/m2 CLR
12:19 15.1 °C 8.3 °C 1024.3 hPa West 16.7 km/h 16.7 km/h 64 % 0.0 mm 452.0 W/m2 CLR
12:24 15.2 °C 8.7 °C 1024.3 hPa WNW 17.7 km/h 18.2 km/h 65 % 0.0 mm 868.0 W/m2 CLR
12:29 15.9 °C 9.1 °C 1024.3 hPa WNW 20.4 km/h 20.4 km/h 64 % 0.0 mm 902.0 W/m2 CLR
12:34 16.4 °C 9.3 °C 1023.9 hPa NW 20.4 km/h 20.4 km/h 63 % 0.0 mm 933.0 W/m2 CLR
12:39 16.7 °C 9.1 °C 1023.9 hPa WNW 16.7 km/h 16.7 km/h 61 % 0.0 mm 874.0 W/m2 CLR
12:44 16.8 °C 9.0 °C 1023.9 hPa WNW 18.5 km/h 18.5 km/h 60 % 0.0 mm 795.0 W/m2 CLR
12:49 16.8 °C 8.8 °C 1023.9 hPa NNW 22.2 km/h 22.2 km/h 59 % 0.0 mm 390.0 W/m2 CLR
12:54 16.4 °C 8.7 °C 1023.9 hPa WNW 14.8 km/h 14.8 km/h 60 % 0.0 mm 613.0 W/m2 CLR
12:59 16.2 °C 8.4 °C 1023.9 hPa WNW 22.2 km/h 22.2 km/h 60 % 0.0 mm 376.0 W/m2 CLR
13:04 16.4 °C 8.9 °C 1023.9 hPa NW 18.5 km/h 18.5 km/h 61 % 0.0 mm 942.0 W/m2 CLR
13:09 16.7 °C 8.4 °C 1023.9 hPa WNW 18.5 km/h 18.5 km/h 58 % 0.0 mm 517.0 W/m2 CLR
13:14 16.7 °C 8.3 °C 1023.6 hPa WNW 18.5 km/h 18.5 km/h 58 % 0.0 mm 336.0 W/m2 CLR
13:19 16.5 °C 8.7 °C 1023.6 hPa West 18.5 km/h 18.5 km/h 60 % 0.0 mm 649.0 W/m2 CLR
13:24 16.7 °C 8.6 °C 1023.6 hPa WNW 25.9 km/h 25.9 km/h 59 % 0.0 mm 313.0 W/m2 CLR
13:29 16.9 °C 8.6 °C 1023.6 hPa West 18.5 km/h 18.5 km/h 58 % 0.0 mm 847.0 W/m2 CLR
13:34 17.1 °C 8.7 °C 1023.6 hPa NNW 22.2 km/h 22.2 km/h 58 % 0.0 mm 731.0 W/m2 CLR
13:39 17.2 °C 8.9 °C 1023.6 hPa WNW 24.1 km/h 24.1 km/h 58 % 0.0 mm 626.0 W/m2 CLR
13:44 17.2 °C 9.1 °C 1023.2 hPa NNW 20.9 km/h 20.9 km/h 59 % 0.0 mm 759.0 W/m2 CLR
13:49 17.3 °C 9.2 °C 1023.6 hPa WNW 18.5 km/h 18.5 km/h 59 % 0.0 mm 766.0 W/m2 CLR
13:54 17.4 °C 8.8 °C 1023.2 hPa WNW 25.9 km/h 25.9 km/h 57 % 0.0 mm 728.0 W/m2 CLR
13:59 17.4 °C 8.8 °C 1023.2 hPa NW 20.4 km/h 20.4 km/h 57 % 0.0 mm 756.0 W/m2 CLR
14:04 17.3 °C 8.7 °C 1023.2 hPa WNW 16.7 km/h 16.7 km/h 57 % 0.0 mm 436.0 W/m2 CLR
14:10 17.1 °C 8.5 °C 1023.2 hPa WNW 20.4 km/h 20.4 km/h 57 % 0.0 mm 860.0 W/m2 CLR
14:15 17.6 °C 8.7 °C 1023.2 hPa West 18.5 km/h 18.5 km/h 56 % 0.0 mm 865.0 W/m2 CLR
14:20 17.8 °C 8.3 °C 1022.9 hPa NW 25.9 km/h 25.9 km/h 54 % 0.0 mm 570.0 W/m2 CLR
14:25 17.6 °C 8.4 °C 1022.9 hPa NNW 25.9 km/h 25.9 km/h 55 % 0.0 mm 496.0 W/m2 CLR
14:30 17.6 °C 9.0 °C 1022.9 hPa West 3.7 km/h 3.7 km/h 57 % 0.0 mm 719.0 W/m2 CLR
14:35 18.1 °C 8.9 °C 1022.9 hPa West 16.7 km/h 17.4 km/h 55 % 0.0 mm 682.0 W/m2 CLR
14:40 18.1 °C 8.9 °C 1022.9 hPa NW 20.9 km/h 22.5 km/h 55 % 0.0 mm 745.0 W/m2 CLR
14:45 18.1 °C 8.6 °C 1022.6 hPa NNW 24.1 km/h 24.1 km/h 54 % 0.0 mm 786.0 W/m2 CLR
14:50 18.4 °C 9.2 °C 1022.6 hPa WNW 18.5 km/h 18.5 km/h 55 % 0.0 mm 884.0 W/m2 CLR
14:55 18.4 °C 9.2 °C 1022.6 hPa NW 17.7 km/h 17.7 km/h 55 % 0.0 mm 708.0 W/m2 CLR
15:00 18.2 °C 9.0 °C 1022.6 hPa NW 16.7 km/h 16.7 km/h 55 % 0.0 mm 701.0 W/m2 CLR
15:05 18.3 °C 8.8 °C 1022.6 hPa WNW 22.2 km/h 22.2 km/h 54 % 0.0 mm 779.0 W/m2 CLR
15:10 18.5 °C 9.3 °C 1022.6 hPa NW 24.1 km/h 24.1 km/h 55 % 0.0 mm 731.0 W/m2 CLR
15:15 18.3 °C 8.6 °C 1022.6 hPa NNW 25.9 km/h 25.9 km/h 53 % 0.0 mm 244.0 W/m2 CLR
15:20 18.2 °C 9.0 °C 1022.6 hPa WNW 22.2 km/h 22.2 km/h 55 % 0.0 mm 793.0 W/m2 CLR
15:25 18.4 °C 8.7 °C 1022.2 hPa NNW 16.7 km/h 16.7 km/h 53 % 0.0 mm 768.0 W/m2 CLR
15:30 18.6 °C 8.5 °C 1022.2 hPa NNW 22.2 km/h 22.2 km/h 52 % 0.0 mm 773.0 W/m2 CLR
15:35 18.7 °C 8.3 °C 1022.2 hPa WNW 5.6 km/h 5.6 km/h 51 % 0.0 mm 786.0 W/m2 CLR
15:40 19.1 °C 8.4 °C 1022.2 hPa NW 14.5 km/h 14.5 km/h 50 % 0.0 mm 652.0 W/m2 CLR
15:45 19.2 °C 7.9 °C 1022.2 hPa NNW 29.6 km/h 29.6 km/h 48 % 0.0 mm 613.0 W/m2 CLR
15:50 19.1 °C 7.8 °C 1022.2 hPa NW 14.8 km/h 14.8 km/h 48 % 0.0 mm 682.0 W/m2 CLR
15:55 19.0 °C 8.1 °C 1021.9 hPa North 24.1 km/h 24.1 km/h 49 % 0.0 mm 747.0 W/m2 CLR
16:00 19.2 °C 7.9 °C 1021.9 hPa NW 31.5 km/h 31.5 km/h 48 % 0.0 mm 754.0 W/m2 CLR
16:05 19.3 °C 7.7 °C 1021.9 hPa WNW 14.8 km/h 14.8 km/h 47 % 0.0 mm 700.0 W/m2 CLR
16:10 19.4 °C 7.8 °C 1021.9 hPa NW 27.8 km/h 27.8 km/h 47 % 0.0 mm 717.0 W/m2 CLR
16:15 19.3 °C 7.4 °C 1021.9 hPa WSW 5.6 km/h 5.6 km/h 46 % 0.0 mm 719.0 W/m2 CLR
16:20 19.5 °C 8.2 °C 1021.9 hPa NW 27.4 km/h 27.4 km/h 48 % 0.0 mm 708.0 W/m2 CLR
16:25 19.4 °C 7.2 °C 1021.6 hPa NW 7.4 km/h 7.4 km/h 45 % 0.0 mm 694.0 W/m2 CLR
16:30 19.6 °C 8.2 °C 1021.6 hPa NNW 20.9 km/h 20.9 km/h 48 % 0.0 mm 682.0 W/m2 CLR
16:35 19.8 °C 8.8 °C 1021.6 hPa NW 16.7 km/h 16.7 km/h 49 % 0.0 mm 670.0 W/m2 CLR
16:40 19.7 °C 7.4 °C 1021.6 hPa West 16.7 km/h 16.7 km/h 45 % 0.0 mm 615.0 W/m2 CLR
16:45 19.7 °C 7.7 °C 1021.2 hPa NW 5.6 km/h 5.6 km/h 46 % 0.0 mm 645.0 W/m2 CLR
16:50 19.8 °C 7.2 °C 1021.6 hPa WNW 14.8 km/h 14.8 km/h 44 % 0.0 mm 633.0 W/m2 CLR
16:55 19.8 °C 7.6 °C 1021.2 hPa NNW 9.3 km/h 9.3 km/h 45 % 0.0 mm 621.0 W/m2 CLR
17:00 19.9 °C 8.2 °C 1021.2 hPa NW 17.7 km/h 17.7 km/h 47 % 0.0 mm 606.0 W/m2 CLR
17:05 19.9 °C 6.9 °C 1021.2 hPa NW 3.7 km/h 3.7 km/h 43 % 0.0 mm 592.0 W/m2 CLR
17:10 20.1 °C 6.8 °C 1021.2 hPa NNW 25.9 km/h 25.9 km/h 42 % 0.0 mm 575.0 W/m2 CLR
17:15 20.0 °C 6.7 °C 1021.2 hPa NW 18.5 km/h 18.5 km/h 42 % 0.0 mm 559.0 W/m2 CLR
17:20 19.9 °C 6.3 °C 1021.2 hPa North 16.1 km/h 16.1 km/h 41 % 0.0 mm 555.0 W/m2 CLR
17:21 19.9 °C 5.9 °C 1021.2 hPa North 20.9 km/h 20.9 km/h 40 % 0.0 mm 554.0 W/m2 CLR
17:26 20.1 °C 4.5 °C 1021.2 hPa NW 20.4 km/h 20.4 km/h 36 % 0.0 mm 531.0 W/m2 CLR
17:31 20.1 °C 4.5 °C 1021.2 hPa NW 13.0 km/h 13.0 km/h 36 % 0.0 mm 519.0 W/m2 CLR
17:36 20.1 °C 3.3 °C 1020.9 hPa NW 18.5 km/h 18.5 km/h 33 % 0.0 mm 508.0 W/m2 CLR
17:41 20.1 °C 4.2 °C 1020.9 hPa NW 16.7 km/h 16.7 km/h 35 % 0.0 mm 494.0 W/m2 CLR
17:46 20.3 °C 4.3 °C 1020.9 hPa NNW 11.1 km/h 11.1 km/h 35 % 0.0 mm 480.0 W/m2 CLR
17:51 20.2 °C 3.8 °C 1020.9 hPa NNE 18.5 km/h 18.5 km/h 34 % 0.0 mm 459.0 W/m2 CLR
17:56 20.3 °C 4.3 °C 1020.9 hPa NNW 1.9 km/h 1.9 km/h 35 % 0.0 mm 441.0 W/m2 CLR
18:01 20.5 °C 5.3 °C 1020.9 hPa WNW 18.5 km/h 18.5 km/h 37 % 0.0 mm 427.0 W/m2 CLR
18:06 20.5 °C 4.9 °C 1020.9 hPa North 5.6 km/h 5.6 km/h 36 % 0.0 mm 404.0 W/m2 CLR
18:11 20.4 °C 5.6 °C 1020.9 hPa North 22.2 km/h 22.2 km/h 38 % 0.0 mm 390.0 W/m2 CLR
18:16 20.3 °C 4.3 °C 1020.9 hPa NNW 18.5 km/h 18.5 km/h 35 % 0.0 mm 376.0 W/m2 CLR
18:21 20.4 °C 5.9 °C 1020.5 hPa WNW 20.9 km/h 20.9 km/h 39 % 0.0 mm 357.0 W/m2 CLR
18:22 20.4 °C 5.9 °C 1020.5 hPa WNW 20.4 km/h 20.4 km/h 39 % 0.0 mm 352.0 W/m2 CLR
18:27 20.4 °C 5.6 °C 1020.5 hPa NW 18.5 km/h 18.5 km/h 38 % 0.0 mm 334.0 W/m2 CLR
18:32 20.4 °C 5.3 °C 1020.5 hPa NW 14.8 km/h 14.8 km/h 37 % 0.0 mm 316.0 W/m2 CLR
18:37 20.4 °C 4.8 °C 1020.9 hPa NNW 14.8 km/h 14.8 km/h 36 % 0.0 mm 297.0 W/m2 CLR
18:42 20.2 °C 6.2 °C 1020.9 hPa WNW 18.5 km/h 18.5 km/h 40 % 0.0 mm 281.0 W/m2 CLR
18:47 20.2 °C 6.1 °C 1020.9 hPa NW 8.0 km/h 9.5 km/h 40 % 0.0 mm 264.0 W/m2 CLR
18:52 20.2 °C 6.5 °C 1020.9 hPa NW 18.5 km/h 18.5 km/h 41 % 0.0 mm 244.0 W/m2 CLR
18:57 20.0 °C 6.3 °C 1020.9 hPa NW 20.4 km/h 20.4 km/h 41 % 0.0 mm 223.0 W/m2 CLR
19:02 19.9 °C 7.0 °C 1020.9 hPa NW 22.2 km/h 22.2 km/h 43 % 0.0 mm 206.0 W/m2 CLR
19:07 19.7 °C 7.1 °C 1020.9 hPa NW 20.4 km/h 20.4 km/h 44 % 0.0 mm 188.0 W/m2 CLR
19:12 19.4 °C 6.9 °C 1020.9 hPa NW 27.8 km/h 27.8 km/h 44 % 0.0 mm 165.0 W/m2 CLR
19:17 19.3 °C 7.1 °C 1020.9 hPa NW 25.7 km/h 25.7 km/h 45 % 0.0 mm 146.0 W/m2 CLR
19:22 19.1 °C 7.2 °C 1020.9 hPa NW 33.3 km/h 33.3 km/h 46 % 0.0 mm 130.0 W/m2 CLR
19:27 18.9 °C 7.4 °C 1020.9 hPa NW 22.2 km/h 22.2 km/h 47 % 0.0 mm 114.0 W/m2 CLR
19:32 18.8 °C 7.3 °C 1020.9 hPa North 25.9 km/h 25.9 km/h 47 % 0.0 mm 95.0 W/m2 CLR
19:37 18.7 °C 7.5 °C 1021.2 hPa NNW 22.2 km/h 22.2 km/h 48 % 0.0 mm 79.0 W/m2 FEW
19:42 18.6 °C 7.0 °C 1021.2 hPa NNW 25.9 km/h 25.9 km/h 47 % 0.0 mm 67.0 W/m2 FEW
19:47 18.4 °C 6.9 °C 1021.2 hPa NNW 20.9 km/h 20.9 km/h 47 % 0.0 mm 54.0 W/m2 SCT
19:53 18.3 °C 7.1 °C 1021.2 hPa NW 25.9 km/h 25.9 km/h 48 % 0.0 mm 42.0 W/m2 BKN
19:58 18.1 °C 7.2 °C 1021.2 hPa NNW 18.5 km/h 18.5 km/h 49 % 0.0 mm 26.0 W/m2 BKN
20:03 17.9 °C 7.0 °C 1021.2 hPa NW 18.5 km/h 18.5 km/h 49 % 0.0 mm 19.0 W/m2 BKN
20:08 17.7 °C 7.1 °C 1021.2 hPa NNW 18.5 km/h 18.5 km/h 50 % 0.0 mm 14.0 W/m2 BKN
20:13 17.4 °C 6.8 °C 1021.2 hPa NW 22.2 km/h 22.2 km/h 50 % 0.0 mm 12.0 W/m2 BKN
20:18 17.2 °C 6.9 °C 1021.2 hPa NNW 29.6 km/h 29.6 km/h 51 % 0.0 mm 9.0 W/m2 BKN
20:24 16.9 °C 7.0 °C 1021.6 hPa North 24.1 km/h 24.1 km/h 52 % 0.0 mm 7.0 W/m2 BKN
20:29 16.7 °C 7.1 °C 1021.6 hPa WNW 16.7 km/h 16.7 km/h 53 % 0.0 mm 5.0 W/m2 OVC
20:34 16.4 °C 6.8 °C 1021.6 hPa NW 22.2 km/h 22.2 km/h 53 % 0.0 mm 0.0 W/m2 OVC
20:39 16.3 °C 6.7 °C 1021.6 hPa NW 20.4 km/h 20.4 km/h 53 % 0.0 mm 0.0 W/m2 CLR
20:44 16.1 °C 6.5 °C 1021.6 hPa NW 14.8 km/h 14.8 km/h 53 % 0.0 mm 0.0 W/m2 CLR
20:49 15.9 °C 6.6 °C 1021.6 hPa NW 12.9 km/h 12.9 km/h 54 % 0.0 mm 0.0 W/m2 CLR
20:54 15.7 °C 6.7 °C 1021.6 hPa NNW 24.1 km/h 24.1 km/h 55 % 0.0 mm 0.0 W/m2 CLR
20:59 15.7 °C 6.7 °C 1021.6 hPa WNW 9.3 km/h 9.3 km/h 55 % 0.0 mm 0.0 W/m2 CLR
21:04 15.4 °C 6.4 °C 1021.9 hPa NW 14.5 km/h 14.5 km/h 55 % 0.0 mm 0.0 W/m2 CLR
21:09 15.3 °C 6.6 °C 1021.9 hPa NW 14.8 km/h 14.8 km/h 56 % 0.0 mm 0.0 W/m2 CLR
21:14 15.2 °C 6.7 °C 1021.9 hPa WNW 29.6 km/h 29.6 km/h 57 % 0.0 mm 0.0 W/m2 CLR
21:19 15.1 °C 6.6 °C 1021.9 hPa NW 18.5 km/h 18.5 km/h 57 % 0.0 mm 0.0 W/m2 CLR
21:24 14.9 °C 6.7 °C 1022.2 hPa WNW 16.7 km/h 16.7 km/h 58 % 0.0 mm 0.0 W/m2 CLR
21:29 14.8 °C 6.7 °C 1022.2 hPa WNW 29.6 km/h 29.6 km/h 58 % 0.0 mm 0.0 W/m2 CLR
21:34 14.7 °C 6.6 °C 1022.2 hPa WNW 24.1 km/h 24.1 km/h 58 % 0.0 mm 0.0 W/m2 CLR
21:39 14.6 °C 6.4 °C 1022.2 hPa NW 20.4 km/h 20.4 km/h 58 % 0.0 mm 0.0 W/m2 CLR
21:44 14.5 °C 6.3 °C 1022.6 hPa West 20.4 km/h 20.4 km/h 58 % 0.0 mm 0.0 W/m2 CLR
21:49 14.4 °C 6.5 °C 1022.6 hPa NW 24.1 km/h 24.1 km/h 59 % 0.0 mm 0.0 W/m2 CLR
21:54 14.3 °C 6.4 °C 1022.6 hPa WNW 18.5 km/h 18.5 km/h 59 % 0.0 mm 0.0 W/m2 CLR
21:59 14.2 °C 6.3 °C 1022.6 hPa West 16.7 km/h 16.7 km/h 59 % 0.0 mm 0.0 W/m2 CLR
22:04 14.1 °C 6.2 °C 1022.6 hPa West 16.1 km/h 16.1 km/h 59 % 0.0 mm 0.0 W/m2 CLR
22:09 14.1 °C 6.2 °C 1022.6 hPa West 11.1 km/h 11.1 km/h 59 % 0.0 mm 0.0 W/m2 CLR
22:14 13.9 °C 6.0 °C 1022.6 hPa NW 5.6 km/h 5.6 km/h 59 % 0.0 mm 0.0 W/m2 CLR
22:19 13.8 °C 6.2 °C 1022.9 hPa West 16.1 km/h 16.1 km/h 60 % 0.0 mm 0.0 W/m2 CLR
22:24 13.7 °C 6.1 °C 1022.9 hPa West 13.0 km/h 13.0 km/h 60 % 0.0 mm 0.0 W/m2 CLR
22:29 13.6 °C 6.0 °C 1022.9 hPa West 16.7 km/h 16.7 km/h 60 % 0.0 mm 0.0 W/m2 CLR
22:34 13.5 °C 5.9 °C 1022.9 hPa WSW 20.4 km/h 20.4 km/h 60 % 0.0 mm 0.0 W/m2 CLR
22:39 13.5 °C 5.9 °C 1022.9 hPa West 18.5 km/h 18.5 km/h 60 % 0.0 mm 0.0 W/m2 CLR
22:44 13.4 °C 5.8 °C 1022.9 hPa West 14.8 km/h 14.8 km/h 60 % 0.0 mm 0.0 W/m2 CLR
22:49 13.4 °C 5.8 °C 1022.9 hPa West 18.5 km/h 18.5 km/h 60 % 0.0 mm 0.0 W/m2 CLR
22:54 13.3 °C 5.9 °C 1022.9 hPa West 20.4 km/h 20.4 km/h 61 % 0.0 mm 0.0 W/m2 CLR
22:59 13.2 °C 5.8 °C 1022.9 hPa WSW 20.9 km/h 20.9 km/h 61 % 0.0 mm 0.0 W/m2 CLR
23:04 13.2 °C 5.8 °C 1022.9 hPa West 14.5 km/h 14.5 km/h 61 % 0.0 mm 0.0 W/m2 CLR
23:09 13.1 °C 5.7 °C 1022.9 hPa West 16.7 km/h 16.7 km/h 61 % 0.0 mm 0.0 W/m2 CLR
23:14 12.9 °C 5.6 °C 1022.9 hPa WNW 18.5 km/h 18.5 km/h 61 % 0.0 mm 0.0 W/m2 CLR
23:19 12.9 °C 5.6 °C 1023.2 hPa West 14.8 km/h 14.8 km/h 61 % 0.0 mm 0.0 W/m2 CLR
23:24 12.9 °C 5.6 °C 1023.2 hPa SW 11.1 km/h 11.1 km/h 61 % 0.0 mm 0.0 W/m2 CLR
23:29 12.8 °C 5.4 °C 1023.2 hPa WSW 14.8 km/h 14.8 km/h 61 % 0.0 mm 0.0 W/m2 CLR
23:34 12.6 °C 5.3 °C 1023.2 hPa WSW 4.8 km/h 4.8 km/h 61 % 0.0 mm 0.0 W/m2 CLR
23:39 12.6 °C 5.3 °C 1023.2 hPa West 14.8 km/h 14.8 km/h 61 % 0.0 mm 0.0 W/m2 CLR
23:44 12.6 °C 5.3 °C 1023.2 hPa WNW 12.9 km/h 12.9 km/h 61 % 0.0 mm 0.0 W/m2 CLR
23:49 12.5 °C 5.2 °C 1023.2 hPa WNW 24.1 km/h 24.1 km/h 61 % 0.0 mm 0.0 W/m2 CLR
23:54 12.5 °C 5.2 °C 1023.2 hPa WSW 16.7 km/h 16.7 km/h 61 % 0.0 mm 0.0 W/m2 CLR
23:59 12.4 °C 5.1 °C 1023.2 hPa WSW 18.5 km/h 18.5 km/h 61 % 0.0 mm 0.0 W/m2 CLR
Lo Temps de Massalio
Compliments of Weather Underground - 1.25 mb